This is the latest recevied weather packets stored in our database for station/object XQ6AK-15. If no packets are shown the sender has not sent any weather packets the latest 10 day(s).
| Time | Temp. | Humidity | Pressure | Rain* | Wind** | Luminosity | Snow |
|---|---|---|---|---|---|---|---|
| 1787935735 | 7.78° C | 99% | 1008 hPa | 10.67 mm | - | 13 W/m² | - |
| 1787935432 | 7.78° C | 99% | 1008 hPa | 9.65 mm | - | 13 W/m² | - |
| 1787935128 | 7.78° C | 99% | 1008.1 hPa | 6.6 mm | - | 13 W/m² | - |
| 1787934828 | 7.78° C | 99% | 1008.1 hPa | 4.32 mm | - | 12 W/m² | - |
| 1787934527 | 7.78° C | 99% | 1008.1 hPa | 4.32 mm | - | 20 W/m² | - |
| 1787934222 | 7.78° C | 99% | 1008 hPa | 6.1 mm | - | 19 W/m² | - |
| 1787933921 | 7.22° C | 99% | 1007.9 hPa | 6.1 mm | - | 23 W/m² | - |
| 1787933620 | 7.22° C | 99% | 1008.2 hPa | 3.05 mm | - | 21 W/m² | - |
| 1787933315 | 7.22° C | 99% | 1007.9 hPa | 6.6 mm | - | 28 W/m² | - |
| 1787933010 | 7.22° C | 99% | 1007.9 hPa | 7.87 mm | - | 38 W/m² | - |
| 1787932709 | 7.22° C | 99% | 1007.7 hPa | 7.11 mm | - | 29 W/m² | - |
| 1787932409 | 7.22° C | 99% | 1008 hPa | 6.1 mm | - | 19 W/m² | - |
| 1787932104 | 7.22° C | 99% | 1007.9 hPa | 4.32 mm | - | 14 W/m² | - |
| 1787931802 | 7.22° C | 99% | 1007.6 hPa | 4.32 mm | - | 20 W/m² | - |
| 1787931496 | 7.22° C | 99% | 1007.8 hPa | 3.05 mm | - | 14 W/m² | - |
| 1787931191 | 7.22° C | 99% | 1007.8 hPa | 4.83 mm | - | 13 W/m² | - |
| 1787930890 | 7.22° C | 99% | 1007.7 hPa | 6.1 mm | - | 12 W/m² | - |
| 1787930584 | 7.22° C | 99% | 1007.7 hPa | 4.32 mm | - | 16 W/m² | - |
| 1787930279 | 7.22° C | 99% | 1007.7 hPa | 3.05 mm | - | 23 W/m² | - |
| 1787929974 | 7.22° C | 99% | 1007.7 hPa | 3.05 mm | - | 24 W/m² | - |
| 1787929673 | 7.22° C | 99% | 1007.5 hPa | 3.05 mm | - | 23 W/m² | - |
| 1787929368 | 7.22° C | 99% | 1007.6 hPa | 3.05 mm | - | 23 W/m² | - |
| 1787929065 | 7.22° C | 99% | 1007.6 hPa | 3.05 mm | - | 24 W/m² | - |
| 1787928762 | 7.22° C | 99% | 1007.7 hPa | 3.05 mm | - | 23 W/m² | - |
| 1787928459 | 7.22° C | 99% | 1007.4 hPa | 4.83 mm | - | 16 W/m² | - |
* Rain latest hour (hover to see other rain measurements)
** Current wind speed in m/s (hover to see current wind gust speed)